• Join FlightAware (Why Join?)
  • Login
  • US Flag GB Flag 
11:11 EST


 

Airport Tracker/Info


-or-


 

Live Flight TrackerFlight Track Log ✈ AAL2042 ✈ 23-Mar-2012 ✈ KDFW - KFLL

Flight Track Log - Related Links

Times and Time Zones

All times are in EDT time to prevent confusion due to time zone crossing. See the AAL2042 flight status page for this flight to view local times or setup timezone preferences in your user account.

Time Position Orientation Groundspeed Altitude Reporting Facility
EDT Latitude Longitude Course Direction KTS MPH feet Rate Location/Type
07:29 32.8477 -97.0301 North  Level FlightAware Approximate
07:29 32.8525 -97.0297 180° South 181 208 2,000  Level FAA TRACON SMA TRACON (SMA)
07:30 32.8108 -97.0300 171° South 224 258 2,700 1,200 Climbing FAA TRACON SMA TRACON (SMA)
07:31 32.7672 -97.0217 111° Southeast 267 307 3,700 1,860 Climbing FAA TRACON SMA TRACON (SMA)
07:31 32.7489 -96.9650 85° East 283 326 5,200 1,800 Climbing FAA TRACON SMA TRACON (SMA)
07:32 32.7539 -96.8975 89° East 301 346 6,200 1,860 Climbing FAA TRACON SMA TRACON (SMA)
07:33 32.7550 -96.8247 89° East 320 368 7,800 2,400 Climbing FAA TRACON SMA TRACON (SMA)
07:33 32.7561 -96.7578 89° East 329 379 9,400 2,160 Climbing FAA TRACON SMA TRACON (SMA)
07:34 32.7575 -96.6803 88° East 342 394 10,700 1,500 Climbing FAA TRACON SMA TRACON (SMA)
07:35 32.7594 -96.5922 89° East 387 445 11,400 1,380 Climbing FAA TRACON SMA TRACON (SMA)
07:35 32.7611 -96.5075 89° East 417 480 12,600 2,460 Climbing FAA TRACON SMA TRACON (SMA)
07:36 32.7628 -96.4106 91° East 424 488 14,800 2,940 Climbing FAA TRACON SMA TRACON (SMA)
07:37 32.7614 -96.3122 100° East 430 495 16,600 2,340 Climbing FAA TRACON SMA TRACON (SMA)
07:37 32.7483 -96.2231 99° East 448 516 17,900 2,640 Climbing FAA TRACON SMA TRACON (SMA)
07:38 32.7344 -96.1206 100° East 455 524 20,100 2,760 Climbing FAA TRACON SMA TRACON (SMA)
07:39 32.7194 -96.0192 102° East 453 521 21,600 1,860 Climbing FAA TRACON SMA TRACON (SMA)
07:41 32.6656 -95.7206 91° East 464 534 25,400 1,740 Climbing Fort Worth Center
07:42 32.6633 -95.5628 84° East 470 541 27,200 1,200 Climbing Fort Worth Center
07:43 32.6775 -95.3994 88° East 485 558 27,800 900 Climbing Fort Worth Center
07:44 32.6828 -95.2117 85° East 498 573 29,100 1,200 Climbing Fort Worth Center
07:45 32.6961 -95.0361 86° East 517 595 30,300 1,500 Climbing Fort Worth Center
07:46 32.7072 -94.8606 99° East 523 602 32,100 1,500 Climbing Fort Worth Center
07:47 32.6850 -94.6958 110° East 510 587 33,400 1,200 Climbing Fort Worth Center
07:48 32.6356 -94.5319 108° East 510 587 34,600 1,140 Climbing Fort Worth Center
07:49 32.5900 -94.3683 110° East 515 593 35,700 960 Climbing Fort Worth Center
07:50 32.5422 -94.2097 109° East 515 593 36,600 600 Climbing Fort Worth Center
07:51 32.4942 -94.0489 109° East 515 593 37,000 180 Climbing Fort Worth Center
07:52 32.4481 -93.8906 109° East 515 593 37,000  Level Fort Worth Center
07:53 32.4017 -93.7300 109° East 515 593 37,000  Level Fort Worth Center
07:54 32.3553 -93.5722 110° East 515 593 37,000  Level Fort Worth Center
07:56 32.2422 -93.2039 110° East 498 573 37,000  Level Houston Center
07:57 32.1939 -93.0439 110° East 503 579 37,000  Level Houston Center
07:58 32.1456 -92.8864 110° East 508 585 37,000  Level Houston Center
07:59 32.0967 -92.7242 111° Southeast 508 585 37,000  Level Houston Center
08:00 32.0519 -92.5839 104° East 508 585 37,000 -60 Level Houston Center
08:01 32.0194 -92.4247 102° East 502 578 36,900  Descending Houston Center
08:02 31.9911 -92.2653 103° East 495 570 37,000  Climbing Houston Center
08:03 31.9583 -92.1036 101° East 495 570 37,000  Level Houston Center
08:04 31.9317 -91.9422 102° East 500 575 37,000  Level Houston Center
08:05 31.9028 -91.7808 103° East 500 575 37,000  Level Houston Center
08:06 31.8736 -91.6269 102° East 500 575 37,000  Level Houston Center
08:07 31.8444 -91.4681 103° East 494 568 37,000  Level Houston Center
08:08 31.8128 -91.3094 103° East 494 568 37,000  Level Houston Center
08:09 31.7831 -91.1558 103° East 489 563 37,000  Level Houston Center
08:10 31.7511 -90.9997 103° East 489 563 37,000 -60 Level Houston Center
08:11 31.7211 -90.8486 104° East 484 557 36,900  Descending Houston Center
08:12 31.6889 -90.6953 102° East 484 557 37,000  Climbing Houston Center
08:13 31.6606 -90.5394 105° East 484 557 37,000 -60 Level Houston Center
08:14 31.6278 -90.3911 103° East 484 557 36,900 -60 Descending Houston Center
08:15 31.5992 -90.2403 103° East 484 557 36,900  Level Houston Center
08:16 31.5683 -90.0897 103° East 474 545 37,000  Climbing Houston Center
08:17 31.5394 -89.9392 104° East 474 545 36,900  Descending Houston Center
08:18 31.5083 -89.7961 102° East 461 531 37,000  Climbing Houston Center
08:19 31.4811 -89.6433 97° East 466 536 36,900  Descending Houston Center
08:20 31.4661 -89.4903 96° East 471 542 37,000  Climbing Houston Center
08:21 31.4511 -89.3350 95° East 471 542 37,000  Level Houston Center
08:22 31.4400 -89.1797 96° East 478 550 37,000  Level Houston Center
08:23 31.4264 -89.0217 94° East 483 556 37,000  Level Houston Center
08:24 31.4172 -88.8689 98° East 476 548 37,000  Level Houston Center
08:25 31.3992 -88.7114 97° East 482 555 37,000  Level Houston Center
08:26 31.3808 -88.5417 99° East 482 555 37,000  Level Houston Center
08:27 31.3603 -88.3844 97° East 482 555 37,000  Level Houston Center
08:28 31.3442 -88.2317 99° East 482 555 37,000  Level Houston Center
08:29 31.3233 -88.0819 98° East 482 555 37,000  Level Houston Center
08:31 31.2875 -87.7761 93° East 483 556 37,000  Level Jacksonville Center
08:32 31.2808 -87.6250 87° East 478 550 37,000  Level Jacksonville Center
08:33 31.2886 -87.4700 86° East 473 544 37,000  Level Jacksonville Center
08:34 31.2981 -87.3197 83° East 468 539 37,000  Level Jacksonville Center
08:35 31.3136 -87.1722 80° East 463 533 37,000  Level Jacksonville Center
08:36 31.3372 -87.0225 114° Southeast 463 533 37,000  Level Jacksonville Center
08:37 31.2872 -86.8914 121° Southeast 430 495 37,000  Level Jacksonville Center
08:38 31.2222 -86.7672 87° East 431 496 37,000  Level Jacksonville Center
08:39 31.2289 -86.6144 104° East 466 536 37,000  Level Jacksonville Center
08:40 31.1975 -86.4722 121° Southeast 452 520 37,000  Level Jacksonville Center
08:41 31.1300 -86.3436 134° Southeast 445 512 37,000  Level Jacksonville Center
08:42 31.0611 -86.2611 132° Southeast 445 512 37,000  Level Jacksonville Center
08:43 30.9703 -86.1439 132° Southeast 445 512 37,000  Level Jacksonville Center
08:44 30.8833 -86.0319 134° Southeast 450 518 37,000  Level Jacksonville Center
08:45 30.7942 -85.9228 132° Southeast 460 529 37,000  Level Jacksonville Center
08:46 30.7092 -85.8136 132° Southeast 460 529 37,000  Level Jacksonville Center
08:47 30.6258 -85.7050 134° Southeast 460 529 37,000  Level Jacksonville Center
08:48 30.5364 -85.5961 133° Southeast 460 529 37,000  Level Jacksonville Center
08:49 30.4469 -85.4853 133° Southeast 460 529 37,000 -60 Level Jacksonville Center
08:50 30.3553 -85.3719 133° Southeast 465 535 36,900 -60 Descending Jacksonville Center
08:51 30.2572 -85.2517 133° Southeast 465 535 36,900  Level Jacksonville Center
08:52 30.1672 -85.1414 134° Southeast 465 535 37,000  Climbing Jacksonville Center
08:53 30.0753 -85.0311 132° Southeast 460 529 36,900  Descending Jacksonville Center
08:54 29.9894 -84.9214 133° Southeast 460 529 37,000  Climbing Jacksonville Center
08:55 29.9014 -84.8142 133° Southeast 460 529 37,000  Level Jacksonville Center
08:56 29.8153 -84.7094 134° Southeast 460 529 37,000 -60 Level Jacksonville Center
08:57 29.7269 -84.6025 134° Southeast 454 522 36,900 -60 Descending Jacksonville Center
08:58 29.6406 -84.4983 135° Southeast 454 522 36,900  Level Jacksonville Center
08:59 29.5581 -84.4039 133° Southeast 454 522 37,000  Climbing Jacksonville Center
09:00 29.4717 -84.2975 134° Southeast 459 528 36,900  Descending Jacksonville Center
09:01 29.3850 -84.1961 133° Southeast 459 528 37,000  Climbing Jacksonville Center
09:02 29.2986 -84.0903 133° Southeast 459 528 37,000 -60 Level Jacksonville Center
09:03 29.2117 -83.9847 134° Southeast 459 528 36,900  Descending Jacksonville Center
09:04 29.1208 -83.8789 133° Southeast 459 528 37,000  Climbing Jacksonville Center
09:05 29.0339 -83.7736 134° Southeast 459 528 37,000 -60 Level Jacksonville Center
09:06 28.9447 -83.6683 134° Southeast 459 528 36,900  Descending Jacksonville Center
09:07 28.8556 -83.5611 133° Southeast 459 528 37,000  Climbing Jacksonville Center
09:08 28.7664 -83.4539 136° Southeast 459 528 37,000  Level Jacksonville Center
09:09 28.6750 -83.3517 134° Southeast 459 528 37,000  Level Jacksonville Center
09:10 28.5856 -83.2447 134° Southeast 459 528 37,000 -60 Level Jacksonville Center
09:12 28.4453 -83.0789 134° Southeast 457 526 36,900 -60 Descending Miami Center
09:13 28.3539 -82.9725 134° Southeast 457 526 36,900  Level Miami Center
09:14 28.2647 -82.8664 135° Southeast 463 533 37,000  Climbing Miami Center
09:15 28.1731 -82.7628 134° Southeast 469 540 37,000  Level Miami Center
09:16 28.0814 -82.6544 135° Southeast 469 540 37,000  Level Miami Center
09:17 27.9775 -82.5386 154° Southeast 469 540 37,000  Level Miami Center
09:18 27.8592 -82.4742 164° South 455 524 37,000 -360 Level Miami Center
09:19 27.7519 -82.4383 162° South 462 532 36,300 -900 Descending Miami Center
09:20 27.6161 -82.3894 161° South 456 525 35,200 -1,020 Descending Miami Center
09:21 27.4908 -82.3414 162° South 464 534 34,300 -960 Descending Miami Center
09:22 27.3775 -82.3008 162° South 470 541 33,300 -960 Descending Miami Center
09:23 27.2561 -82.2556 162° South 470 541 32,400 -1,020 Descending Miami Center
09:24 27.1119 -82.2022 162° South 481 554 31,300 -1,020 Descending Miami Center
09:25 26.9864 -82.1567 163° South 476 548 30,400 -960 Descending Miami Center
09:26 26.8647 -82.1139 156° South 469 540 29,400 -1,500 Descending Miami Center
09:27 26.7561 -82.0603 127° Southeast 469 540 27,500 -2,100 Descending Miami Center
09:28 26.6806 -81.9500 123° Southeast 449 517 25,200 -2,520 Descending Miami Center
09:29 26.6058 -81.8236 126° Southeast 443 510 22,500 -2,460 Descending Miami Center
09:30 26.5342 -81.7139 124° Southeast 437 503 20,300 -2,220 Descending Miami Center
09:31 26.4669 -81.6044 124° Southeast 430 495 18,100 -2,100 Descending Miami Center
09:32 26.4056 -81.5022 127° Southeast 418 481 16,100 -2,100 Descending Miami Center
09:33 26.3375 -81.4022 122° Southeast 408 470 13,900 -1,860 Descending Miami Center
09:34 26.2822 -81.3028 120° Southeast 395 455 12,400 -1,260 Descending Miami Center
09:35 26.2331 -81.2061 122° Southeast 380 437 11,400 -1,020 Descending Miami Center
09:36 26.1833 -81.1164 124° Southeast 351 404 10,400 -960 Descending Miami Center
09:37 26.1436 -81.0503 121° Southeast 301 346 9,700 -1,440 Descending Miami Center
09:38 26.1019 -80.9725 105° East 285 328 7,800 -1,320 Descending Miami Center
09:39 26.0794 -80.8769 104° East 282 325 6,900 -840 Descending Miami Center
09:40 26.0628 -80.8000 81° East 267 307 6,000 -480 Descending Miami Center
09:41 26.0733 -80.7217 85° East 252 290 6,000  Level Miami Center
09:42 26.0794 -80.6433 92° East 252 290 6,000 -240 Level Miami Center
09:43 26.0772 -80.5669 91° East 254 292 5,600 -540 Descending Miami Center
09:44 26.0767 -80.4997 88° East 239 275 5,000 -360 Descending Miami Center
09:45 26.0783 -80.4328 93° East 223 257 5,000 -600 Level Miami Center
09:46 26.0756 -80.3794 91° East 184 212 3,900 -1,200 Descending Miami Center
09:47 26.0747 -80.3217 91° East 183 211 2,700 -1,200 Descending Miami Center